GCGM/GMZ METAR and TAF weather

Enter ICAO airport designator
Station Type Date Time Source
GCGM METAR 2020/06/05 08:30 UTC NOAA

GCGM 050830Z AUTO 21003KT 110V270 9999 BKN016 BKN023 22/19 Q1014 RMK R09/VRB02KT ARP/VRB02KT


Station Type Date Time Source
GCGM Decoded METAR 2020/06/05 08:30 UTC NOAA

Station name not available
Jun 05, 2020 - 04:30 AM EDT / 2020.06.05 0830 UTC
Wind: from the SSW (210 degrees) at 3 MPH (3 KT) (direction variable):0
Visibility: greater than 7 mile(s):0
Sky conditions: mostly cloudy
Temperature: 71 F (22 C)
Dew Point: 66 F (19 C)
Relative Humidity: 83%
Pressure (altimeter): 29.94 in. Hg (1014 hPa)
ob: GCGM 050830Z AUTO 21003KT 110V270 9999 BKN016 BKN023 22/19 Q1014 RMK R09/VRB02KT ARP/VRB02KT
cycle: 8

Station Type Date Time Source
GCGM TAF 2020/06/05 09:00 UTC NOAA

TAF GCGM 050800Z 0509/0609 23013KT 9999 BKN020 TX26/0513Z TN20/0606Z PROB40
TEMPO 0509/0511 VRB03KT PROB40
TEMPO 0509/0521 RA BKN014

Example: see airport list